Terminal Aerodrome Forecast
Issued by NWS

Home | Current Version | Previous Version | Text Only | Print | Product List | Glossary On
Versions: 1 2 3 4 5 6 7 8 9 10 11 12 13 14 15 16
000
FTUS44 KTSA 162300
TAFFYV
TAF
KFYV 162337Z 1700/1724 07004KT P6SM BKN021 OVC030
     FM170300 14002KT 4SM BR BKN050
     FM170600 00000KT 2SM BR OVC025
      TEMPO 1708/1712 1/2SM FG BKN001
     FM171500 20005KT P6SM BKN015
     FM171800 21007KT P6SM BKN050=

USA.gov is the U.S. government's official web portal to all federal, state and local government web resources and services.